Elk Valley, North Carolina
Current Conditions -  °F | °C
As of 8:55 AM on Monday 24 Nov 2014 (Local Time) from KTNB Reporting Station
Clear Clear  
Wind Chill: 51°   Ceiling: Unl
Heat Index: 51°   Visibility: 10mi
Dew Point: 49°   Wind: 6mph
Humidity: 92%   Direction: 190°S
Pressure: 29.78"   Gusts: NA
Location:  36.1797°N, 81.8424°W
Report Text: KTNB 241355Z AUTO 19005KT 10SM CLR 11/09 A2978 RMK AO2 T01060094
Loading
Personal Weather Stations






























Interactive Weather Map New forecast layout! Learn more

10-Day Weather Forecast

Advertisements
Track Severe Weather on mobile